Time;durP1;ratioP1;P1;durP2;ratioP2;P2;SDS_P1;SDS_P2;PMS_P1;PMS_P2;Temp;Humidity;BMP_temperature;BMP_pressure;BME280_temperature;BME280_humidity;BME280_pressure;Samples;Min_cycle;Max_cycle;Signal;HPM_P1;HPM_P2
2022/01/13 00:03:26;;;;;;;4.15;2.38;;;18.70;76.80;;;;;;10565254;28;20047;-74
2022/01/13 00:08:27;;;;;;;3.63;2.20;;;18.60;76.80;;;;;;10547832;28;20052;-74
2022/01/13 00:13:35;;;;;;;3.55;2.13;;;18.50;76.90;;;;;;10541729;28;20040;-73
2022/01/13 00:18:39;;;;;;;3.40;2.15;;;18.50;77.00;;;;;;10560497;28;20040;-74
2022/01/13 00:23:43;;;;;;;3.15;2.00;;;18.40;77.00;;;;;;10553960;28;20043;-73
2022/01/13 00:28:46;;;;;;;3.05;2.10;;;18.40;77.10;;;;;;10557550;27;20044;-74
2022/01/13 00:33:50;;;;;;;2.78;1.88;;;18.30;77.20;;;;;;10588138;27;20575;-73
2022/01/13 00:38:52;;;;;;;3.03;1.98;;;18.30;77.30;;;;;;10567565;27;20055;-73
2022/01/13 00:43:53;;;;;;;3.47;2.22;;;18.20;77.30;;;;;;10574410;28;20047;-73
2022/01/13 00:48:54;;;;;;;3.25;2.10;;;18.20;77.40;;;;;;10557620;28;20412;-74
2022/01/13 00:54:02;;;;;;;3.75;2.00;;;18.10;77.50;;;;;;10547827;27;20481;-73
2022/01/13 00:59:07;;;;;;;3.13;2.05;;;18.10;77.50;;;;;;10558544;27;20054;-73
2022/01/13 01:04:08;;;;;;;4.15;2.13;;;18.00;77.50;;;;;;10568162;28;20036;-73
2022/01/13 01:09:13;;;;;;;3.28;2.00;;;18.00;77.60;;;;;;10572650;27;20054;-74
2022/01/13 01:14:15;;;;;;;3.55;2.30;;;17.90;77.60;;;;;;10570205;27;20048;-74
2022/01/13 01:19:25;;;;;;;3.60;2.20;;;17.90;77.70;;;;;;10554391;27;20569;-73
2022/01/13 01:29:56;;;;;;;2.97;2.00;;;17.80;77.80;;;;;;10546867;27;20051;-74
2022/01/13 01:35:03;;;;;;;3.50;1.98;;;17.80;77.80;;;;;;10554385;27;20054;-73
2022/01/13 01:40:04;;;;;;;3.10;2.20;;;17.70;78.40;;;;;;10547808;27;20050;-73
2022/01/13 01:45:06;;;;;;;3.38;2.33;;;17.60;77.90;;;;;;10543539;28;20044;-73
2022/01/13 01:50:11;;;;;;;3.90;2.30;;;17.60;78.00;;;;;;10548850;27;20050;-73
2022/01/13 01:55:12;;;;;;;3.90;2.20;;;17.60;78.00;;;;;;10555583;27;20553;-74
2022/01/13 02:00:13;;;;;;;3.50;2.15;;;17.60;78.10;;;;;;10543418;28;20105;-73
2022/01/13 02:05:15;;;;;;;3.65;2.40;;;17.50;78.10;;;;;;10569867;28;20047;-74
2022/01/13 02:10:17;;;;;;;3.30;2.30;;;17.50;78.10;;;;;;10574048;27;20496;-74
2022/01/13 02:15:31;;;;;;;3.95;2.40;;;17.40;78.10;;;;;;10587704;28;20503;-74
2022/01/13 02:20:32;;;;;;;3.30;2.10;;;17.40;78.20;;;;;;10604387;27;20051;-74
2022/01/13 02:25:34;;;;;;;3.92;2.10;;;17.30;78.20;;;;;;10564296;27;20047;-73
2022/01/13 02:30:35;;;;;;;3.35;2.20;;;17.30;78.30;;;;;;10574738;27;20047;-75
2022/01/13 02:35:37;;;;;;;3.45;1.90;;;17.30;78.30;;;;;;10553856;28;20047;-75
2022/01/13 02:40:38;;;;;;;3.20;2.20;;;17.30;78.30;;;;;;10543763;28;20405;-74
2022/01/13 02:45:52;;;;;;;3.33;1.85;;;17.20;78.30;;;;;;10552504;27;20492;-75
2022/01/13 02:50:53;;;;;;;3.70;2.15;;;17.20;78.40;;;;;;10545719;28;20048;-75
2022/01/13 02:56:00;;;;;;;3.05;2.20;;;17.10;78.40;;;;;;10546108;28;20556;-74
2022/01/13 03:01:01;;;;;;;4.18;2.40;;;17.10;78.40;;;;;;10563250;28;20040;-73
2022/01/13 03:06:03;;;;;;;2.65;2.10;;;17.10;78.50;;;;;;10539115;28;20040;-73
2022/01/13 03:11:05;;;;;;;3.25;2.08;;;17.00;78.50;;;;;;10549894;28;20048;-73
2022/01/13 03:16:07;;;;;;;2.92;1.90;;;17.00;78.50;;;;;;10544277;28;20067;-73
2022/01/13 03:21:08;;;;;;;3.47;1.88;;;17.00;78.50;;;;;;10576378;28;20079;-73
2022/01/13 03:26:10;;;;;;;3.03;2.50;;;16.90;78.50;;;;;;10559178;28;20040;-73
2022/01/13 03:31:11;;;;;;;3.15;2.38;;;16.90;78.60;;;;;;10568535;28;20048;-73
2022/01/13 03:36:13;;;;;;;3.95;2.30;;;16.90;78.60;;;;;;10565353;28;20047;-72
2022/01/13 03:41:14;;;;;;;2.70;2.08;;;16.90;78.60;;;;;;10537045;28;20052;-74
2022/01/13 03:46:16;;;;;;;3.50;1.92;;;16.80;78.60;;;;;;10550047;28;20495;-74
2022/01/13 03:51:17;;;;;;;2.83;1.80;;;16.80;78.70;;;;;;10550845;27;20070;-74
2022/01/13 03:56:19;;;;;;;3.42;2.28;;;16.80;78.70;;;;;;10558329;27;20535;-74
2022/01/13 04:01:20;;;;;;;3.20;2.00;;;16.70;78.70;;;;;;10556172;27;20412;-73
2022/01/13 04:06:21;;;;;;;2.72;2.25;;;16.70;78.70;;;;;;10561751;28;20481;-73
2022/01/13 04:11:24;;;;;;;2.53;2.00;;;16.70;78.70;;;;;;10584168;28;20412;-73
2022/01/13 04:16:27;;;;;;;3.72;2.15;;;16.70;78.80;;;;;;10568310;28;20052;-73
2022/01/13 04:21:28;;;;;;;2.58;2.00;;;16.60;78.80;;;;;;10577308;27;20047;-74
2022/01/13 04:26:32;;;;;;;3.15;1.98;;;16.60;78.80;;;;;;10577492;27;20387;-74
2022/01/13 04:31:33;;;;;;;2.58;1.80;;;16.60;78.90;;;;;;10570356;28;20044;-73
2022/01/13 04:36:35;;;;;;;3.13;2.08;;;16.50;78.90;;;;;;10555277;28;20044;-74
2022/01/13 04:41:38;;;;;;;2.75;2.10;;;16.50;78.90;;;;;;10564335;27;20048;-73
2022/01/13 04:46:40;;;;;;;2.97;2.00;;;16.50;79.00;;;;;;10580264;28;20548;-74
2022/01/13 04:51:41;;;;;;;2.97;2.20;;;16.50;79.00;;;;;;10545749;27;20489;-73
2022/01/13 04:56:52;;;;;;;2.67;1.92;;;16.50;79.00;;;;;;10555800;27;20531;-74
2022/01/13 05:01:54;;;;;;;2.45;1.90;;;16.40;79.00;;;;;;10554395;27;20130;-73
2022/01/13 05:06:55;;;;;;;3.00;1.92;;;16.40;79.10;;;;;;10545750;27;20082;-72
2022/01/13 05:11:57;;;;;;;3.15;2.15;;;16.40;79.10;;;;;;10577423;27;20048;-72
2022/01/13 05:17:04;;;;;;;2.65;2.08;;;16.30;79.00;;;;;;10569874;28;20039;-73
2022/01/13 05:22:18;;;;;;;2.55;1.85;;;16.30;79.10;;;;;;10575545;27;20050;-73
2022/01/13 05:27:21;;;;;;;2.50;2.08;;;16.30;79.10;;;;;;10573746;27;20496;-73
2022/01/13 05:32:22;;;;;;;3.08;2.10;;;16.20;79.10;;;;;;10548352;28;20050;-73
2022/01/13 05:37:24;;;;;;;2.38;1.83;;;16.20;79.10;;;;;;10568902;27;20050;-73
2022/01/13 05:42:25;;;;;;;2.05;1.85;;;16.20;79.20;;;;;;10543914;27;20044;-73
2022/01/13 05:47:27;;;;;;;2.20;1.83;;;16.20;79.20;;;;;;10538380;27;20044;-73
2022/01/13 05:52:28;;;;;;;3.17;2.10;;;16.20;79.20;;;;;;10560627;27;20051;-73
2022/01/13 05:57:30;;;;;;;2.75;2.08;;;16.10;79.20;;;;;;10559428;27;20050;-74
2022/01/13 06:02:31;;;;;;;2.47;2.00;;;16.10;79.20;;;;;;10571485;27;20051;-73
2022/01/13 06:07:32;;;;;;;2.28;1.75;;;16.10;79.30;;;;;;10571014;27;20051;-72
2022/01/13 06:12:37;;;;;;;2.33;1.83;;;16.10;79.30;;;;;;10547204;28;20059;-74
2022/01/13 06:17:38;;;;;;;3.05;2.00;;;16.00;79.30;;;;;;10552383;28;20116;-73
2022/01/13 06:22:39;;;;;;;2.50;1.92;;;16.00;79.30;;;;;;10544542;28;20105;-73
2022/01/13 06:27:41;;;;;;;3.30;2.13;;;16.00;79.40;;;;;;10539557;27;20437;-74
2022/01/13 06:32:42;;;;;;;2.00;1.75;;;16.00;79.40;;;;;;10545461;28;20051;-73
2022/01/13 06:37:44;;;;;;;3.03;2.05;;;15.90;79.30;;;;;;10548941;28;20055;-73
2022/01/13 06:42:46;;;;;;;2.25;2.00;;;15.90;79.30;;;;;;10544931;28;20047;-74
2022/01/13 06:47:47;;;;;;;2.90;2.05;;;15.90;79.40;;;;;;10544848;28;20055;-74
2022/01/13 06:52:49;;;;;;;2.70;2.08;;;15.90;79.40;;;;;;10554257;28;20056;-74
2022/01/13 06:57:52;;;;;;;2.60;2.13;;;15.80;79.40;;;;;;10555790;28;20048;-74
2022/01/13 07:02:56;;;;;;;2.63;2.30;;;15.80;79.40;;;;;;10572895;28;20364;-73
2022/01/13 07:07:57;;;;;;;2.90;2.60;;;15.80;79.80;;;;;;10567816;28;20101;-74
2022/01/13 07:12:58;;;;;;;2.80;2.17;;;15.80;80.10;;;;;;10562120;28;20114;-73
2022/01/13 07:18:00;;;;;;;3.58;2.42;;;16.20;80.10;;;;;;10556780;28;20043;-73
2022/01/13 07:23:01;;;;;;;3.08;2.22;;;16.60;79.80;;;;;;10563516;28;20458;-73
2022/01/13 07:28:04;;;;;;;2.58;2.03;;;17.00;79.30;;;;;;10583939;28;20040;-73
2022/01/13 07:33:05;;;;;;;3.67;2.45;;;17.00;79.10;;;;;;10560408;28;20058;-73
2022/01/13 07:38:07;;;;;;;3.28;2.88;;;16.90;79.10;;;;;;10543943;28;20052;-73
2022/01/13 07:43:08;;;;;;;3.25;2.88;;;16.70;79.20;;;;;;10560735;28;20052;-73
2022/01/13 07:48:10;;;;;;;3.45;2.97;;;16.60;79.40;;;;;;10552000;28;20046;-74
2022/01/13 07:53:11;;;;;;;5.60;3.38;;;16.50;79.90;;;;;;10575990;28;20048;-73
2022/01/13 07:58:13;;;;;;;3.40;2.85;;;16.50;79.90;;;;;;10542694;28;20048;-73
2022/01/13 08:03:14;;;;;;;3.03;2.60;;;16.40;80.10;;;;;;10557305;28;20047;-73
2022/01/13 08:08:16;;;;;;;4.30;2.95;;;16.40;80.20;;;;;;10562407;28;20051;-72
2022/01/13 08:13:17;;;;;;;3.60;2.90;;;16.40;80.10;;;;;;10541714;28;20063;-73
2022/01/13 08:23:38;;;;;;;3.28;2.90;;;16.40;80.30;;;;;;10571893;28;20032;-72
2022/01/13 08:28:39;;;;;;;4.15;2.92;;;16.40;80.20;;;;;;10541499;28;20101;-73
2022/01/13 08:33:41;;;;;;;3.67;2.92;;;16.40;80.40;;;;;;10573796;28;20055;-74
2022/01/13 08:38:42;;;;;;;3.65;2.95;;;16.40;80.20;;;;;;10540701;28;20044;-73
2022/01/13 08:43:45;;;;;;;3.78;3.00;;;16.40;80.30;;;;;;10540212;28;20056;-73
2022/01/13 08:48:46;;;;;;;3.55;2.80;;;16.40;80.30;;;;;;10544535;28;20050;-74
2022/01/13 08:53:47;;;;;;;3.80;3.17;;;16.40;80.20;;;;;;10560849;28;20052;-73
2022/01/13 08:58:49;;;;;;;4.10;3.00;;;16.40;80.30;;;;;;10568527;28;20055;-73
2022/01/13 09:03:50;;;;;;;3.53;3.03;;;16.40;80.80;;;;;;10540180;28;20048;-74
2022/01/13 09:08:52;;;;;;;4.43;3.50;;;16.40;80.10;;;;;;10539183;28;20044;-73
2022/01/13 09:13:56;;;;;;;3.78;2.92;;;16.40;80.30;;;;;;10548933;28;20066;-73
2022/01/13 09:19:11;;;;;;;4.05;3.15;;;16.40;80.20;;;;;;10589467;28;20048;-73
2022/01/13 09:24:12;;;;;;;4.57;3.50;;;16.40;80.10;;;;;;10552147;28;20381;-74
2022/01/13 09:29:14;;;;;;;3.85;3.28;;;16.40;80.10;;;;;;10550096;28;20040;-73
2022/01/13 09:34:15;;;;;;;5.35;3.78;;;16.40;80.00;;;;;;10555069;28;20493;-73
2022/01/13 09:39:17;;;;;;;4.15;3.13;;;16.40;80.10;;;;;;10538765;28;20078;-73
2022/01/13 09:44:18;;;;;;;4.47;3.55;;;16.40;80.10;;;;;;10563279;28;20071;-73
2022/01/13 09:49:19;;;;;;;4.00;3.25;;;16.40;80.00;;;;;;10563254;28;20048;-74
2022/01/13 09:54:21;;;;;;;3.60;3.05;;;16.40;80.10;;;;;;10547765;28;20059;-74
2022/01/13 09:59:22;;;;;;;4.90;3.38;;;16.40;80.00;;;;;;10539602;28;20181;-73
2022/01/13 10:04:24;;;;;;;5.00;3.33;;;16.40;80.00;;;;;;10552076;28;20048;-73
2022/01/13 10:09:25;;;;;;;3.88;3.22;;;16.40;80.00;;;;;;10537563;28;20052;-73
2022/01/13 10:19:46;;;;;;;3.60;3.08;;;16.40;80.00;;;;;;10578442;28;20118;-74
2022/01/13 10:24:48;;;;;;;4.00;3.15;;;16.40;79.90;;;;;;10577278;28;20504;-73
2022/01/13 10:29:49;;;;;;;4.70;3.47;;;16.40;79.90;;;;;;10578865;28;20401;-73
2022/01/13 10:34:51;;;;;;;4.57;3.40;;;16.40;80.00;;;;;;10539862;28;20130;-73
2022/01/13 10:39:52;;;;;;;4.32;3.50;;;16.40;79.90;;;;;;10542607;28;20055;-73
2022/01/13 10:44:54;;;;;;;4.35;3.30;;;16.40;79.90;;;;;;10571235;28;20044;-73
2022/01/13 10:49:55;;;;;;;4.63;3.40;;;16.40;80.00;;;;;;10578337;28;20075;-73
2022/01/13 10:54:57;;;;;;;5.13;3.50;;;16.40;79.90;;;;;;10550525;28;20044;-74
2022/01/13 10:59:58;;;;;;;4.80;3.67;;;16.40;80.00;;;;;;10535619;28;20055;-74
2022/01/13 11:05:00;;;;;;;4.40;3.42;;;16.40;80.00;;;;;;10548993;28;20042;-73
2022/01/13 11:10:03;;;;;;;5.57;3.95;;;16.40;79.90;;;;;;10560027;28;20056;-74
2022/01/13 11:15:06;;;;;;;4.57;3.38;;;16.40;80.10;;;;;;10540494;28;20051;-73
2022/01/13 11:20:08;;;;;;;3.33;2.53;;;16.70;80.00;;;;;;10545670;28;20046;-74
2022/01/13 11:25:09;;;;;;;3.25;2.50;;;17.20;79.60;;;;;;10561174;28;20040;-73
2022/01/13 11:30:11;;;;;;;3.28;2.50;;;17.80;78.90;;;;;;10552254;28;20725;-74
2022/01/13 11:35:12;;;;;;;2.72;2.00;;;18.40;78.10;;;;;;10550192;28;20429;-74
2022/01/13 11:40:14;;;;;;;2.33;2.00;;;18.90;77.40;;;;;;10573597;28;20054;-74
2022/01/13 11:45:15;;;;;;;3.33;2.22;;;19.40;76.80;;;;;;10571450;28;20048;-73
2022/01/13 11:50:19;;;;;;;2.47;2.10;;;19.80;76.30;;;;;;10552208;28;20062;-74
2022/01/13 11:55:20;;;;;;;3.25;1.60;;;20.20;75.80;;;;;;10531138;28;20405;-74
2022/01/13 12:00:22;;;;;;;2.88;2.20;;;20.50;75.40;;;;;;10554867;28;20044;-75
2022/01/13 12:05:23;;;;;;;2.78;2.00;;;20.80;75.00;;;;;;10527419;28;20135;-74
2022/01/13 12:10:25;;;;;;;2.70;2.10;;;21.10;74.70;;;;;;10547022;28;20051;-74
2022/01/13 12:15:26;;;;;;;2.38;2.00;;;21.30;74.40;;;;;;10552240;27;20047;-74
2022/01/13 12:20:37;;;;;;;2.65;1.77;;;21.50;74.10;;;;;;10554007;27;20097;-75
2022/01/13 12:25:39;;;;;;;2.30;2.10;;;21.70;73.80;;;;;;10535910;27;20051;-74
2022/01/13 12:30:40;;;;;;;3.55;2.53;;;21.80;73.70;;;;;;10572745;28;20059;-74
2022/01/13 12:35:42;;;;;;;3.00;2.30;;;21.80;73.60;;;;;;10540841;28;20044;-75
2022/01/13 12:40:45;;;;;;;2.85;2.10;;;21.60;73.90;;;;;;10546479;28;20055;-74
2022/01/13 12:45:47;;;;;;;3.17;2.38;;;21.20;74.30;;;;;;10563577;28;20271;-74
2022/01/13 12:50:48;;;;;;;3.28;2.65;;;20.80;74.80;;;;;;10572086;28;20056;-74
2022/01/13 12:55:50;;;;;;;4.40;2.63;;;20.40;75.20;;;;;;10543262;28;20055;-74
2022/01/13 13:00:51;;;;;;;3.58;2.63;;;20.10;75.60;;;;;;10540328;28;20474;-74
2022/01/13 13:05:53;;;;;;;4.07;2.63;;;19.90;75.90;;;;;;10539694;28;20048;-75
2022/01/13 13:10:57;;;;;;;3.38;2.83;;;19.60;76.20;;;;;;10545954;28;20496;-74
2022/01/13 13:15:58;;;;;;;3.13;2.70;;;19.40;76.50;;;;;;10564231;28;20052;-74
2022/01/13 13:21:00;;;;;;;4.05;2.72;;;19.20;76.70;;;;;;10538978;28;20523;-74
2022/01/13 13:26:05;;;;;;;4.32;3.10;;;19.10;77.00;;;;;;10543317;28;20428;-75
2022/01/13 13:31:06;;;;;;;2.80;2.60;;;18.90;77.10;;;;;;10547651;28;20054;-74
2022/01/13 13:36:08;;;;;;;3.83;2.90;;;18.70;77.20;;;;;;10538451;28;20055;-73
2022/01/13 13:41:09;;;;;;;3.75;2.58;;;18.60;77.40;;;;;;10538774;28;20055;-74
2022/01/13 13:46:11;;;;;;;3.22;2.85;;;18.50;78.10;;;;;;10554356;28;20043;-74
2022/01/13 13:51:13;;;;;;;2.90;2.60;;;18.40;77.60;;;;;;10579969;28;20044;-73
2022/01/13 13:56:14;;;;;;;4.57;3.20;;;18.30;77.70;;;;;;10590895;28;20108;-73
2022/01/13 14:01:16;;;;;;;4.00;3.03;;;18.20;77.80;;;;;;10555941;28;20044;-74
2022/01/13 14:06:17;;;;;;;4.15;3.17;;;18.20;77.80;;;;;;10591740;28;20043;-74
2022/01/13 14:11:19;;;;;;;3.90;2.78;;;18.10;77.90;;;;;;10563745;28;20052;-74
2022/01/13 14:16:20;;;;;;;3.28;2.97;;;18.10;78.00;;;;;;10546080;28;20120;-75
2022/01/13 14:21:22;;;;;;;3.88;3.35;;;18.10;78.00;;;;;;10575250;28;20047;-74
2022/01/13 14:26:23;;;;;;;3.78;2.97;;;18.00;78.10;;;;;;10536222;28;20074;-74
2022/01/13 14:31:25;;;;;;;4.20;2.92;;;18.00;78.00;;;;;;10536715;28;20040;-74
2022/01/13 14:36:27;;;;;;;4.63;2.78;;;18.00;78.10;;;;;;10534840;28;20063;-74
2022/01/13 14:41:30;;;;;;;3.35;2.80;;;18.00;78.10;;;;;;10535904;28;20117;-74
2022/01/13 14:46:31;;;;;;;3.75;2.72;;;18.00;78.10;;;;;;10535937;28;20048;-74
2022/01/13 14:51:33;;;;;;;3.75;2.78;;;17.90;78.20;;;;;;10535768;28;20048;-74
2022/01/13 14:56:35;;;;;;;3.58;2.97;;;18.00;78.20;;;;;;10535174;28;20048;-74
2022/01/13 15:01:36;;;;;;;3.10;2.40;;;17.90;78.30;;;;;;10535492;28;20043;-75
2022/01/13 15:06:38;;;;;;;2.83;2.42;;;18.00;78.20;;;;;;10535215;28;20052;-75
2022/01/13 15:11:39;;;;;;;3.38;2.35;;;17.90;78.20;;;;;;10556269;28;20059;-75
2022/01/13 15:16:41;;;;;;;3.03;2.45;;;18.00;78.30;;;;;;10539100;28;20113;-74
2022/01/13 15:21:44;;;;;;;2.88;2.20;;;17.90;78.20;;;;;;10538961;28;20047;-75
2022/01/13 15:26:47;;;;;;;2.97;2.17;;;17.90;78.30;;;;;;10539309;28;20122;-74
2022/01/13 15:31:48;;;;;;;3.38;2.25;;;17.90;78.30;;;;;;10577208;28;20047;-74
2022/01/13 15:36:50;;;;;;;3.00;2.20;;;17.90;78.30;;;;;;10537936;28;20055;-74
2022/01/13 15:41:51;;;;;;;3.50;2.35;;;17.90;78.30;;;;;;10535192;28;20052;-74
2022/01/13 15:46:53;;;;;;;3.05;1.80;;;17.90;78.40;;;;;;10546797;28;20044;-74
2022/01/13 15:51:55;;;;;;;2.88;2.30;;;17.90;78.30;;;;;;10579310;28;20059;-74
2022/01/13 15:56:56;;;;;;;2.90;1.75;;;17.90;78.40;;;;;;10584381;28;20100;-75
2022/01/13 16:01:58;;;;;;;2.95;2.00;;;17.90;78.30;;;;;;10569408;28;20055;-74
2022/01/13 16:06:59;;;;;;;2.53;1.95;;;17.90;78.90;;;;;;10570295;28;20060;-74
2022/01/13 16:12:01;;;;;;;2.53;1.90;;;17.90;78.30;;;;;;10583491;28;20051;-74
2022/01/13 16:17:02;;;;;;;3.00;1.75;;;17.90;78.30;;;;;;10557719;28;20050;-75
2022/01/13 16:22:04;;;;;;;2.03;1.73;;;17.90;78.30;;;;;;10550725;28;20039;-74
2022/01/13 16:27:05;;;;;;;2.47;1.92;;;17.90;78.30;;;;;;10619521;28;20058;-74
2022/01/13 16:32:07;;;;;;;2.83;1.70;;;17.90;78.30;;;;;;10569254;28;20048;-74
2022/01/13 16:37:08;;;;;;;2.85;1.70;;;17.90;78.20;;;;;;10571327;27;20039;-75
2022/01/13 16:42:10;;;;;;;2.47;2.10;;;17.90;78.30;;;;;;10574904;28;20028;-74
2022/01/13 16:47:11;;;;;;;2.65;1.80;;;18.00;78.40;;;;;;10600376;27;20455;-73
2022/01/13 16:52:13;;;;;;;1.70;1.40;;;18.10;78.40;;;;;;10546191;27;20051;-75
2022/01/13 16:57:14;;;;;;;2.53;1.70;;;18.50;78.00;;;;;;10557606;27;20490;-75
2022/01/13 17:02:15;;;;;;;2.33;1.42;;;19.00;77.40;;;;;;10559243;28;20051;-74
2022/01/13 17:07:17;;;;;;;2.55;1.50;;;19.60;76.70;;;;;;10576055;28;20496;-74
2022/01/13 17:12:18;;;;;;;1.88;1.42;;;20.10;76.00;;;;;;10542634;28;20055;-75
2022/01/13 17:17:20;;;;;;;3.08;1.40;;;20.50;75.40;;;;;;10572505;28;20344;-74
2022/01/13 17:22:21;;;;;;;1.70;1.20;;;20.80;75.10;;;;;;10535301;28;20407;-74
2022/01/13 17:27:23;;;;;;;1.63;1.00;;;21.00;74.70;;;;;;10550473;28;20039;-75
2022/01/13 17:32:26;;;;;;;2.15;1.15;;;21.10;74.60;;;;;;10534863;28;20059;-75
2022/01/13 17:37:28;;;;;;;2.40;1.35;;;21.10;74.50;;;;;;10535484;28;20047;-74
2022/01/13 17:42:29;;;;;;;3.63;1.50;;;21.20;74.50;;;;;;10550192;27;20505;-75
2022/01/13 17:47:31;;;;;;;2.90;1.20;;;21.20;74.60;;;;;;10551463;28;20039;-76
2022/01/13 17:52:32;;;;;;;2.58;1.65;;;21.20;74.60;;;;;;10575419;27;20047;-74
2022/01/13 17:57:34;;;;;;;2.15;1.10;;;21.20;74.50;;;;;;10551422;28;20040;-74
2022/01/13 18:02:35;;;;;;;2.63;1.33;;;21.20;74.50;;;;;;10574297;27;20061;-75
2022/01/13 18:07:37;;;;;;;2.17;1.10;;;21.20;74.50;;;;;;10546746;27;20043;-75
2022/01/13 18:12:38;;;;;;;2.28;1.40;;;21.20;74.40;;;;;;10551467;28;20063;-74
2022/01/13 18:17:40;;;;;;;1.95;1.23;;;21.30;74.50;;;;;;10535715;28;20425;-74
2022/01/13 18:22:41;;;;;;;2.40;1.42;;;21.30;74.50;;;;;;10533055;28;20066;-75
2022/01/13 18:27:43;;;;;;;2.70;1.50;;;21.30;74.40;;;;;;10533891;28;20433;-75
2022/01/13 18:32:44;;;;;;;1.92;1.30;;;21.30;74.50;;;;;;10534743;28;20531;-74
2022/01/13 18:37:46;;;;;;;2.65;1.50;;;21.30;74.50;;;;;;10536405;28;20075;-76
2022/01/13 18:42:53;;;;;;;2.15;1.58;;;21.20;74.60;;;;;;10532610;28;20043;-75
2022/01/13 18:48:00;;;;;;;6.30;1.90;;;21.20;74.80;;;;;;10551552;28;20126;-75
2022/01/13 18:53:01;;;;;;;5.97;1.77;;;21.10;74.80;;;;;;10549983;28;20051;-75
2022/01/13 18:58:03;;;;;;;3.38;1.60;;;21.10;74.80;;;;;;10581945;27;20042;-75
2022/01/13 19:03:04;;;;;;;5.95;1.73;;;21.20;74.80;;;;;;10586136;28;20070;-75
2022/01/13 19:08:06;;;;;;;5.80;1.90;;;21.20;74.70;;;;;;10587905;28;20048;-74
2022/01/13 19:13:07;;;;;;;3.85;1.75;;;21.20;74.70;;;;;;10584340;28;20047;-75
2022/01/13 19:18:09;;;;;;;3.17;1.80;;;21.20;74.70;;;;;;10577183;28;20124;-75
2022/01/13 19:23:10;;;;;;;4.35;2.00;;;21.20;74.70;;;;;;10531476;28;20044;-75
2022/01/13 19:28:13;;;;;;;3.95;1.90;;;21.20;74.70;;;;;;10530353;28;20051;-75
2022/01/13 19:33:15;;;;;;;3.58;1.92;;;21.20;75.00;;;;;;10543624;28;20066;-75
2022/01/13 19:38:18;;;;;;;2.83;1.90;;;21.20;74.80;;;;;;10548860;28;20153;-74
2022/01/13 19:43:19;;;;;;;3.40;1.90;;;21.20;74.80;;;;;;10560004;28;20122;-74
2022/01/13 19:48:21;;;;;;;1.90;1.60;;;21.20;74.80;;;;;;10547499;28;20044;-74
2022/01/13 19:53:24;;;;;;;3.35;2.08;;;21.20;74.90;;;;;;10566225;28;20052;-76
2022/01/13 19:58:26;;;;;;;2.97;2.00;;;21.20;74.90;;;;;;10558661;28;20048;-75
2022/01/13 20:03:30;;;;;;;2.75;1.67;;;21.20;75.10;;;;;;10565347;28;20044;-76
2022/01/13 20:08:32;;;;;;;3.13;1.50;;;21.30;75.20;;;;;;10532806;28;20051;-75
2022/01/13 20:13:34;;;;;;;3.45;1.65;;;21.20;75.10;;;;;;10531337;28;20056;-76
2022/01/13 20:18:36;;;;;;;3.25;1.88;;;21.30;75.30;;;;;;10559723;28;20400;-75
2022/01/13 20:23:37;;;;;;;2.83;1.58;;;21.20;75.30;;;;;;10569264;28;20047;-74
2022/01/13 20:28:39;;;;;;;3.15;1.80;;;21.20;75.30;;;;;;10565355;28;20077;-75
2022/01/13 20:33:41;;;;;;;3.25;1.85;;;21.20;75.30;;;;;;10568180;28;20055;-75
2022/01/13 20:38:42;;;;;;;3.05;1.92;;;21.20;75.40;;;;;;10561516;28;20059;-75
2022/01/13 20:43:44;;;;;;;2.58;1.60;;;21.20;75.50;;;;;;10578079;28;20044;-75
2022/01/13 20:48:45;;;;;;;2.13;1.60;;;21.20;75.40;;;;;;10555669;28;20043;-75
2022/01/13 20:53:47;;;;;;;3.25;1.90;;;21.10;75.40;;;;;;10558263;28;20051;-75
2022/01/13 20:58:49;;;;;;;2.65;1.75;;;21.20;75.40;;;;;;10537378;28;20537;-75
2022/01/13 21:03:50;;;;;;;3.65;1.90;;;21.10;75.40;;;;;;10541720;28;20447;-75
2022/01/13 21:08:52;;;;;;;2.78;1.83;;;21.10;75.30;;;;;;10559271;28;20484;-75
2022/01/13 21:13:53;;;;;;;4.10;2.40;;;21.10;75.40;;;;;;10563562;28;20056;-75
2022/01/13 21:18:55;;;;;;;2.83;1.90;;;21.10;75.60;;;;;;10561824;28;20561;-75
2022/01/13 21:23:56;;;;;;;3.97;2.10;;;21.00;75.70;;;;;;10560271;28;20040;-75
2022/01/13 21:29:00;;;;;;;2.65;1.80;;;21.00;75.90;;;;;;10570867;28;20062;-75
2022/01/13 21:34:01;;;;;;;3.25;2.08;;;20.80;76.00;;;;;;10562406;28;20078;-75
2022/01/13 21:39:03;;;;;;;3.50;1.95;;;20.60;76.20;;;;;;10559448;28;20048;-74
2022/01/13 21:44:05;;;;;;;4.07;1.90;;;20.40;76.30;;;;;;10591594;28;20047;-76
2022/01/13 21:49:06;;;;;;;3.58;2.05;;;20.30;76.50;;;;;;10552285;27;20044;-74
2022/01/13 21:54:08;;;;;;;2.67;1.70;;;20.10;76.60;;;;;;10567868;28;20093;-74
2022/01/13 21:59:09;;;;;;;3.45;2.17;;;20.00;76.80;;;;;;10573976;28;20039;-74
2022/01/13 22:04:13;;;;;;;2.92;1.90;;;19.80;76.80;;;;;;10572768;28;20043;-74
2022/01/13 22:14:34;;;;;;;3.67;2.10;;;19.60;77.20;;;;;;10559819;28;20052;-72
2022/01/13 22:19:36;;;;;;;5.07;2.20;;;19.50;77.30;;;;;;10543397;28;20040;-74
2022/01/13 22:24:37;;;;;;;3.50;2.00;;;19.40;77.40;;;;;;10540181;28;20040;-74
2022/01/13 22:29:39;;;;;;;3.55;1.80;;;19.30;77.50;;;;;;10548467;27;20063;-74
2022/01/13 22:34:40;;;;;;;4.18;2.10;;;19.30;77.70;;;;;;10561182;28;20055;-74
2022/01/13 22:39:42;;;;;;;3.92;2.20;;;19.20;77.80;;;;;;10554947;28;20059;-74
2022/01/13 22:44:43;;;;;;;3.05;1.75;;;19.10;77.80;;;;;;10558199;28;20051;-74
2022/01/13 22:49:44;;;;;;;3.53;1.80;;;19.00;77.90;;;;;;10553808;28;20044;-74
2022/01/13 22:54:47;;;;;;;4.63;2.05;;;18.90;78.00;;;;;;10568778;28;20051;-74
2022/01/13 22:59:48;;;;;;;4.05;1.95;;;18.90;78.10;;;;;;10545888;28;20652;-73
2022/01/13 23:04:50;;;;;;;2.88;1.98;;;18.80;78.10;;;;;;10537989;28;20044;-74
2022/01/13 23:09:51;;;;;;;3.40;2.03;;;18.70;78.20;;;;;;10547538;28;20056;-73
2022/01/13 23:25:27;;;;;;;3.03;1.70;;;18.60;78.50;;;;;;10538672;28;20024;-73
2022/01/13 23:30:29;;;;;;;2.97;1.90;;;18.50;78.40;;;;;;10544323;28;20040;-74
2022/01/13 23:35:30;;;;;;;2.47;1.42;;;18.40;78.50;;;;;;10542802;28;20048;-74
2022/01/13 23:40:32;;;;;;;2.97;1.77;;;18.40;78.60;;;;;;10559490;28;20492;-74
2022/01/13 23:50:49;;;;;;;3.72;2.13;;;18.20;78.60;;;;;;10537622;28;20082;-74
2022/01/13 23:55:50;;;;;;;4.20;1.73;;;18.20;78.70;;;;;;10576281;28;20052;-73
